sensor_id;sensor_type;location;lat;lon;timestamp;P1;durP1;ratioP1;P2;durP2;ratioP2
18905;SDS011;9585;51.018;4.282;2024-03-23T00:53:28;6.75;;;3.67;;
18905;SDS011;9585;51.018;4.282;2024-03-23T00:55:56;8.93;;;3.67;;
18905;SDS011;9585;51.018;4.282;2024-03-23T00:58:23;9.45;;;4.10;;
18905;SDS011;9585;51.018;4.282;2024-03-23T01:00:52;6.88;;;3.85;;
18905;SDS011;9585;51.018;4.282;2024-03-23T01:03:19;7.03;;;4.00;;
18905;SDS011;9585;51.018;4.282;2024-03-23T01:05:47;6.03;;;3.70;;
18905;SDS011;9585;51.018;4.282;2024-03-23T01:08:14;6.60;;;3.70;;
18905;SDS011;9585;51.018;4.282;2024-03-23T01:10:41;6.45;;;3.38;;
18905;SDS011;9585;51.018;4.282;2024-03-23T01:13:20;4.78;;;3.10;;
18905;SDS011;9585;51.018;4.282;2024-03-23T01:15:48;5.53;;;3.30;;
18905;SDS011;9585;51.018;4.282;2024-03-23T01:18:16;7.38;;;4.00;;
18905;SDS011;9585;51.018;4.282;2024-03-23T01:20:44;8.65;;;4.40;;
18905;SDS011;9585;51.018;4.282;2024-03-23T01:23:11;7.18;;;4.50;;
18905;SDS011;9585;51.018;4.282;2024-03-23T01:25:39;13.75;;;5.43;;
18905;SDS011;9585;51.018;4.282;2024-03-23T01:28:05;9.18;;;4.70;;
18905;SDS011;9585;51.018;4.282;2024-03-23T01:30:33;7.95;;;3.97;;
18905;SDS011;9585;51.018;4.282;2024-03-23T01:33:00;7.28;;;3.78;;
18905;SDS011;9585;51.018;4.282;2024-03-23T01:35:29;5.63;;;3.88;;
18905;SDS011;9585;51.018;4.282;2024-03-23T01:37:57;6.80;;;3.95;;
18905;SDS011;9585;51.018;4.282;2024-03-23T01:40:24;7.10;;;4.18;;
18905;SDS011;9585;51.018;4.282;2024-03-23T01:42:55;9.85;;;4.25;;
18905;SDS011;9585;51.018;4.282;2024-03-23T01:45:23;8.07;;;4.03;;
18905;SDS011;9585;51.018;4.282;2024-03-23T01:47:50;8.25;;;3.92;;
18905;SDS011;9585;51.018;4.282;2024-03-23T01:50:18;8.63;;;4.30;;
18905;SDS011;9585;51.018;4.282;2024-03-23T01:52:46;8.45;;;4.80;;
18905;SDS011;9585;51.018;4.282;2024-03-23T01:55:15;6.72;;;4.28;;
18905;SDS011;9585;51.018;4.282;2024-03-23T01:57:41;9.90;;;4.53;;
18905;SDS011;9585;51.018;4.282;2024-03-23T02:00:09;7.55;;;4.90;;
18905;SDS011;9585;51.018;4.282;2024-03-23T02:02:40;9.07;;;4.35;;
18905;SDS011;9585;51.018;4.282;2024-03-23T02:05:10;12.05;;;5.75;;
18905;SDS011;9585;51.018;4.282;2024-03-23T02:07:37;13.43;;;5.45;;
18905;SDS011;9585;51.018;4.282;2024-03-23T02:10:07;11.90;;;5.97;;
18905;SDS011;9585;51.018;4.282;2024-03-23T02:12:35;12.10;;;5.93;;
18905;SDS011;9585;51.018;4.282;2024-03-23T02:15:03;14.35;;;6.63;;
18905;SDS011;9585;51.018;4.282;2024-03-23T02:17:30;14.85;;;6.65;;
18905;SDS011;9585;51.018;4.282;2024-03-23T02:20:00;14.57;;;6.95;;
18905;SDS011;9585;51.018;4.282;2024-03-23T02:22:34;15.93;;;6.72;;
18905;SDS011;9585;51.018;4.282;2024-03-23T02:25:07;17.23;;;7.03;;
18905;SDS011;9585;51.018;4.282;2024-03-23T02:27:33;18.70;;;7.35;;
18905;SDS011;9585;51.018;4.282;2024-03-23T02:30:01;13.48;;;6.60;;
18905;SDS011;9585;51.018;4.282;2024-03-23T02:32:28;16.38;;;6.80;;
18905;SDS011;9585;51.018;4.282;2024-03-23T02:34:55;12.45;;;6.18;;
18905;SDS011;9585;51.018;4.282;2024-03-23T02:37:22;14.25;;;6.68;;
18905;SDS011;9585;51.018;4.282;2024-03-23T02:39:49;16.23;;;6.60;;
18905;SDS011;9585;51.018;4.282;2024-03-23T02:42:17;16.05;;;6.63;;
18905;SDS011;9585;51.018;4.282;2024-03-23T02:44:45;12.63;;;5.82;;
18905;SDS011;9585;51.018;4.282;2024-03-23T02:47:11;14.80;;;6.70;;
18905;SDS011;9585;51.018;4.282;2024-03-23T02:49:39;15.18;;;6.53;;
18905;SDS011;9585;51.018;4.282;2024-03-23T02:52:05;16.40;;;6.93;;
18905;SDS011;9585;51.018;4.282;2024-03-23T02:54:33;16.77;;;6.22;;
18905;SDS011;9585;51.018;4.282;2024-03-23T02:56:59;15.13;;;6.40;;
18905;SDS011;9585;51.018;4.282;2024-03-23T02:59:29;16.40;;;6.75;;
18905;SDS011;9585;51.018;4.282;2024-03-23T03:01:56;14.32;;;6.65;;
18905;SDS011;9585;51.018;4.282;2024-03-23T03:04:25;16.90;;;6.05;;
18905;SDS011;9585;51.018;4.282;2024-03-23T03:06:51;19.10;;;7.50;;
18905;SDS011;9585;51.018;4.282;2024-03-23T03:09:19;16.27;;;6.00;;
18905;SDS011;9585;51.018;4.282;2024-03-23T03:11:46;14.60;;;6.95;;
18905;SDS011;9585;51.018;4.282;2024-03-23T03:14:14;17.38;;;6.88;;
18905;SDS011;9585;51.018;4.282;2024-03-23T03:16:43;15.35;;;6.55;;
18905;SDS011;9585;51.018;4.282;2024-03-23T03:19:11;17.63;;;6.70;;
18905;SDS011;9585;51.018;4.282;2024-03-23T03:21:37;14.45;;;6.07;;
18905;SDS011;9585;51.018;4.282;2024-03-23T03:24:06;16.60;;;6.20;;
18905;SDS011;9585;51.018;4.282;2024-03-23T03:26:33;13.68;;;6.32;;
18905;SDS011;9585;51.018;4.282;2024-03-23T03:29:01;12.13;;;6.45;;
18905;SDS011;9585;51.018;4.282;2024-03-23T03:31:28;14.57;;;6.30;;
18905;SDS011;9585;51.018;4.282;2024-03-23T03:33:57;16.23;;;6.38;;
18905;SDS011;9585;51.018;4.282;2024-03-23T03:36:24;13.98;;;6.07;;
18905;SDS011;9585;51.018;4.282;2024-03-23T03:38:52;13.13;;;6.15;;
18905;SDS011;9585;51.018;4.282;2024-03-23T03:41:19;16.30;;;6.18;;
18905;SDS011;9585;51.018;4.282;2024-03-23T03:43:47;13.68;;;6.10;;
18905;SDS011;9585;51.018;4.282;2024-03-23T03:46:13;13.38;;;5.93;;
18905;SDS011;9585;51.018;4.282;2024-03-23T03:48:41;12.68;;;6.72;;
18905;SDS011;9585;51.018;4.282;2024-03-23T03:51:11;21.75;;;6.68;;
18905;SDS011;9585;51.018;4.282;2024-03-23T03:53:39;19.38;;;6.47;;
18905;SDS011;9585;51.018;4.282;2024-03-23T03:56:06;17.42;;;7.28;;
18905;SDS011;9585;51.018;4.282;2024-03-23T03:58:34;19.52;;;7.25;;
18905;SDS011;9585;51.018;4.282;2024-03-23T04:01:01;11.68;;;7.28;;
18905;SDS011;9585;51.018;4.282;2024-03-23T04:03:29;20.85;;;7.50;;
18905;SDS011;9585;51.018;4.282;2024-03-23T04:05:56;19.65;;;7.70;;
18905;SDS011;9585;51.018;4.282;2024-03-23T04:08:25;18.25;;;6.57;;
18905;SDS011;9585;51.018;4.282;2024-03-23T04:10:51;16.65;;;7.32;;
18905;SDS011;9585;51.018;4.282;2024-03-23T04:13:19;18.17;;;7.70;;
18905;SDS011;9585;51.018;4.282;2024-03-23T04:15:46;14.70;;;6.97;;
18905;SDS011;9585;51.018;4.282;2024-03-23T04:18:13;15.77;;;7.20;;
18905;SDS011;9585;51.018;4.282;2024-03-23T04:20:40;15.38;;;7.70;;
18905;SDS011;9585;51.018;4.282;2024-03-23T04:23:08;20.83;;;8.00;;
18905;SDS011;9585;51.018;4.282;2024-03-23T04:25:36;14.60;;;7.55;;
18905;SDS011;9585;51.018;4.282;2024-03-23T04:28:04;18.33;;;7.20;;
18905;SDS011;9585;51.018;4.282;2024-03-23T04:30:31;13.43;;;6.53;;
18905;SDS011;9585;51.018;4.282;2024-03-23T04:32:58;16.70;;;6.80;;
18905;SDS011;9585;51.018;4.282;2024-03-23T04:35:26;14.45;;;6.97;;
18905;SDS011;9585;51.018;4.282;2024-03-23T04:37:54;13.95;;;6.53;;
18905;SDS011;9585;51.018;4.282;2024-03-23T04:40:24;15.82;;;6.10;;
18905;SDS011;9585;51.018;4.282;2024-03-23T04:42:54;12.13;;;5.93;;
18905;SDS011;9585;51.018;4.282;2024-03-23T04:45:21;11.40;;;5.60;;
18905;SDS011;9585;51.018;4.282;2024-03-23T04:47:49;13.75;;;6.15;;
18905;SDS011;9585;51.018;4.282;2024-03-23T04:50:19;13.48;;;5.30;;
18905;SDS011;9585;51.018;4.282;2024-03-23T04:52:47;13.80;;;6.07;;
18905;SDS011;9585;51.018;4.282;2024-03-23T04:55:15;17.70;;;5.78;;
18905;SDS011;9585;51.018;4.282;2024-03-23T04:57:42;12.45;;;5.47;;
18905;SDS011;9585;51.018;4.282;2024-03-23T05:00:13;10.05;;;4.95;;
18905;SDS011;9585;51.018;4.282;2024-03-23T05:02:44;7.72;;;4.85;;
18905;SDS011;9585;51.018;4.282;2024-03-23T05:05:11;13.43;;;5.10;;
18905;SDS011;9585;51.018;4.282;2024-03-23T05:07:39;12.30;;;4.70;;
18905;SDS011;9585;51.018;4.282;2024-03-23T05:10:07;9.38;;;3.95;;
18905;SDS011;9585;51.018;4.282;2024-03-23T05:12:36;9.35;;;4.55;;
18905;SDS011;9585;51.018;4.282;2024-03-23T05:15:03;8.25;;;3.92;;
18905;SDS011;9585;51.018;4.282;2024-03-23T05:17:34;10.95;;;4.43;;
18905;SDS011;9585;51.018;4.282;2024-03-23T05:20:03;10.88;;;4.28;;
18905;SDS011;9585;51.018;4.282;2024-03-23T05:22:35;11.35;;;4.35;;
18905;SDS011;9585;51.018;4.282;2024-03-23T05:25:02;9.45;;;3.83;;
18905;SDS011;9585;51.018;4.282;2024-03-23T05:27:31;9.60;;;4.28;;
18905;SDS011;9585;51.018;4.282;2024-03-23T05:29:58;10.45;;;4.55;;
18905;SDS011;9585;51.018;4.282;2024-03-23T05:32:26;12.32;;;4.40;;
18905;SDS011;9585;51.018;4.282;2024-03-23T05:34:55;11.15;;;4.20;;
18905;SDS011;9585;51.018;4.282;2024-03-23T05:37:23;8.95;;;3.50;;
18905;SDS011;9585;51.018;4.282;2024-03-23T05:39:49;9.38;;;4.22;;
18905;SDS011;9585;51.018;4.282;2024-03-23T05:42:17;11.20;;;3.85;;
18905;SDS011;9585;51.018;4.282;2024-03-23T05:44:44;10.93;;;4.30;;
18905;SDS011;9585;51.018;4.282;2024-03-23T05:47:13;10.68;;;4.20;;
18905;SDS011;9585;51.018;4.282;2024-03-23T05:49:41;15.02;;;5.15;;
18905;SDS011;9585;51.018;4.282;2024-03-23T05:52:11;11.40;;;4.70;;
18905;SDS011;9585;51.018;4.282;2024-03-23T05:54:37;12.73;;;4.32;;
18905;SDS011;9585;51.018;4.282;2024-03-23T05:57:20;14.70;;;4.30;;
18905;SDS011;9585;51.018;4.282;2024-03-23T05:59:47;8.93;;;4.80;;
18905;SDS011;9585;51.018;4.282;2024-03-23T06:02:18;10.40;;;4.05;;
18905;SDS011;9585;51.018;4.282;2024-03-23T06:04:45;9.88;;;4.20;;
18905;SDS011;9585;51.018;4.282;2024-03-23T06:07:14;10.98;;;4.47;;
18905;SDS011;9585;51.018;4.282;2024-03-23T06:09:41;9.88;;;3.60;;
18905;SDS011;9585;51.018;4.282;2024-03-23T06:12:09;13.95;;;3.97;;
18905;SDS011;9585;51.018;4.282;2024-03-23T06:14:36;10.95;;;3.75;;
18905;SDS011;9585;51.018;4.282;2024-03-23T06:17:04;11.45;;;3.50;;
18905;SDS011;9585;51.018;4.282;2024-03-23T06:19:31;11.40;;;3.58;;
18905;SDS011;9585;51.018;4.282;2024-03-23T06:21:58;8.25;;;3.30;;
18905;SDS011;9585;51.018;4.282;2024-03-23T06:24:26;9.10;;;3.35;;
18905;SDS011;9585;51.018;4.282;2024-03-23T06:26:54;9.18;;;3.50;;
18905;SDS011;9585;51.018;4.282;2024-03-23T06:29:21;9.07;;;3.80;;
18905;SDS011;9585;51.018;4.282;2024-03-23T06:31:53;11.32;;;3.55;;
18905;SDS011;9585;51.018;4.282;2024-03-23T06:34:20;8.27;;;2.70;;
18905;SDS011;9585;51.018;4.282;2024-03-23T06:36:48;7.25;;;2.50;;
18905;SDS011;9585;51.018;4.282;2024-03-23T06:39:15;8.07;;;2.53;;
18905;SDS011;9585;51.018;4.282;2024-03-23T06:41:50;8.10;;;2.10;;
18905;SDS011;9585;51.018;4.282;2024-03-23T06:44:18;8.68;;;2.50;;
18905;SDS011;9585;51.018;4.282;2024-03-23T06:46:47;5.55;;;1.92;;
18905;SDS011;9585;51.018;4.282;2024-03-23T06:49:14;7.95;;;2.03;;
18905;SDS011;9585;51.018;4.282;2024-03-23T06:51:42;9.82;;;2.97;;
18905;SDS011;9585;51.018;4.282;2024-03-23T06:54:08;7.15;;;2.10;;
18905;SDS011;9585;51.018;4.282;2024-03-23T06:56:36;6.40;;;2.28;;
18905;SDS011;9585;51.018;4.282;2024-03-23T06:59:05;7.47;;;2.22;;
18905;SDS011;9585;51.018;4.282;2024-03-23T07:01:33;7.18;;;2.67;;
18905;SDS011;9585;51.018;4.282;2024-03-23T07:04:00;8.57;;;2.17;;
18905;SDS011;9585;51.018;4.282;2024-03-23T07:06:29;6.70;;;2.10;;
18905;SDS011;9585;51.018;4.282;2024-03-23T07:08:56;6.07;;;1.90;;
18905;SDS011;9585;51.018;4.282;2024-03-23T07:11:24;8.98;;;2.08;;
18905;SDS011;9585;51.018;4.282;2024-03-23T07:13:51;5.72;;;2.30;;
18905;SDS011;9585;51.018;4.282;2024-03-23T07:16:21;7.35;;;2.33;;
18905;SDS011;9585;51.018;4.282;2024-03-23T07:18:49;5.35;;;1.98;;
18905;SDS011;9585;51.018;4.282;2024-03-23T07:21:17;6.72;;;2.03;;
18905;SDS011;9585;51.018;4.282;2024-03-23T07:23:43;7.13;;;2.05;;
18905;SDS011;9585;51.018;4.282;2024-03-23T07:26:11;4.80;;;1.83;;
18905;SDS011;9585;51.018;4.282;2024-03-23T07:28:38;6.82;;;2.03;;
18905;SDS011;9585;51.018;4.282;2024-03-23T07:31:09;6.18;;;1.85;;
18905;SDS011;9585;51.018;4.282;2024-03-23T07:33:41;5.32;;;2.10;;
18905;SDS011;9585;51.018;4.282;2024-03-23T07:36:09;5.88;;;1.70;;
18905;SDS011;9585;51.018;4.282;2024-03-23T07:38:36;3.67;;;1.50;;
18905;SDS011;9585;51.018;4.282;2024-03-23T07:41:04;6.68;;;1.95;;
18905;SDS011;9585;51.018;4.282;2024-03-23T07:43:31;5.82;;;1.75;;
18905;SDS011;9585;51.018;4.282;2024-03-23T07:45:59;6.18;;;2.20;;
18905;SDS011;9585;51.018;4.282;2024-03-23T07:48:26;6.55;;;1.92;;
18905;SDS011;9585;51.018;4.282;2024-03-23T07:50:59;5.30;;;1.95;;
18905;SDS011;9585;51.018;4.282;2024-03-23T07:53:26;6.28;;;2.08;;
18905;SDS011;9585;51.018;4.282;2024-03-23T07:55:55;6.78;;;2.22;;
18905;SDS011;9585;51.018;4.282;2024-03-23T07:58:22;6.38;;;2.05;;
18905;SDS011;9585;51.018;4.282;2024-03-23T08:00:49;6.13;;;2.33;;
18905;SDS011;9585;51.018;4.282;2024-03-23T08:03:16;6.97;;;2.25;;
18905;SDS011;9585;51.018;4.282;2024-03-23T08:05:43;7.70;;;2.60;;
18905;SDS011;9585;51.018;4.282;2024-03-23T08:08:13;8.75;;;2.55;;
18905;SDS011;9585;51.018;4.282;2024-03-23T08:10:47;7.25;;;2.50;;
18905;SDS011;9585;51.018;4.282;2024-03-23T08:13:15;7.68;;;2.22;;
18905;SDS011;9585;51.018;4.282;2024-03-23T08:15:41;6.85;;;2.30;;
18905;SDS011;9585;51.018;4.282;2024-03-23T08:18:09;7.63;;;2.28;;
18905;SDS011;9585;51.018;4.282;2024-03-23T08:20:36;10.30;;;2.67;;
18905;SDS011;9585;51.018;4.282;2024-03-23T08:23:04;6.45;;;2.13;;
18905;SDS011;9585;51.018;4.282;2024-03-23T08:25:33;8.13;;;1.75;;
18905;SDS011;9585;51.018;4.282;2024-03-23T08:28:00;5.05;;;1.50;;
18905;SDS011;9585;51.018;4.282;2024-03-23T08:30:27;7.32;;;1.90;;
18905;SDS011;9585;51.018;4.282;2024-03-23T08:32:55;6.38;;;2.00;;
18905;SDS011;9585;51.018;4.282;2024-03-23T08:35:22;5.10;;;1.77;;
18905;SDS011;9585;51.018;4.282;2024-03-23T08:37:49;5.30;;;1.63;;
18905;SDS011;9585;51.018;4.282;2024-03-23T08:40:15;5.57;;;1.70;;
18905;SDS011;9585;51.018;4.282;2024-03-23T08:42:45;4.18;;;1.52;;
18905;SDS011;9585;51.018;4.282;2024-03-23T08:45:12;7.25;;;1.60;;
18905;SDS011;9585;51.018;4.282;2024-03-23T08:47:39;8.32;;;1.70;;
18905;SDS011;9585;51.018;4.282;2024-03-23T08:50:06;7.03;;;1.88;;
18905;SDS011;9585;51.018;4.282;2024-03-23T08:52:34;5.43;;;1.90;;
18905;SDS011;9585;51.018;4.282;2024-03-23T08:55:00;7.97;;;2.35;;
18905;SDS011;9585;51.018;4.282;2024-03-23T08:57:28;6.15;;;1.67;;
18905;SDS011;9585;51.018;4.282;2024-03-23T08:59:56;7.68;;;2.17;;
18905;SDS011;9585;51.018;4.282;2024-03-23T09:02:23;6.10;;;2.00;;
18905;SDS011;9585;51.018;4.282;2024-03-23T09:04:50;7.47;;;2.03;;
18905;SDS011;9585;51.018;4.282;2024-03-23T09:07:17;7.00;;;2.00;;
18905;SDS011;9585;51.018;4.282;2024-03-23T09:09:43;7.40;;;1.73;;
18905;SDS011;9585;51.018;4.282;2024-03-23T09:12:11;4.47;;;1.50;;
18905;SDS011;9585;51.018;4.282;2024-03-23T09:14:37;8.15;;;2.00;;
18905;SDS011;9585;51.018;4.282;2024-03-23T09:17:06;7.70;;;2.17;;
18905;SDS011;9585;51.018;4.282;2024-03-23T09:19:33;6.90;;;2.00;;
18905;SDS011;9585;51.018;4.282;2024-03-23T09:22:01;6.22;;;1.52;;
18905;SDS011;9585;51.018;4.282;2024-03-23T09:24:27;6.03;;;1.67;;
18905;SDS011;9585;51.018;4.282;2024-03-23T09:26:55;5.68;;;1.73;;
18905;SDS011;9585;51.018;4.282;2024-03-23T09:29:21;4.82;;;1.50;;
18905;SDS011;9585;51.018;4.282;2024-03-23T09:31:49;3.28;;;1.10;;
18905;SDS011;9585;51.018;4.282;2024-03-23T09:34:17;5.10;;;1.85;;
18905;SDS011;9585;51.018;4.282;2024-03-23T09:36:44;6.40;;;1.60;;
18905;SDS011;9585;51.018;4.282;2024-03-23T09:39:11;4.82;;;1.40;;
18905;SDS011;9585;51.018;4.282;2024-03-23T09:41:39;6.38;;;2.00;;
18905;SDS011;9585;51.018;4.282;2024-03-23T09:44:06;8.77;;;1.90;;
18905;SDS011;9585;51.018;4.282;2024-03-23T09:46:34;5.25;;;1.73;;
18905;SDS011;9585;51.018;4.282;2024-03-23T09:49:01;6.40;;;2.17;;
18905;SDS011;9585;51.018;4.282;2024-03-23T09:51:31;5.93;;;1.85;;
18905;SDS011;9585;51.018;4.282;2024-03-23T09:53:57;4.72;;;1.63;;
18905;SDS011;9585;51.018;4.282;2024-03-23T09:56:25;4.05;;;1.25;;
18905;SDS011;9585;51.018;4.282;2024-03-23T09:58:51;5.75;;;1.55;;
18905;SDS011;9585;51.018;4.282;2024-03-23T10:01:26;4.95;;;1.50;;
18905;SDS011;9585;51.018;4.282;2024-03-23T10:03:52;5.20;;;1.58;;
18905;SDS011;9585;51.018;4.282;2024-03-23T10:06:21;6.88;;;1.67;;
18905;SDS011;9585;51.018;4.282;2024-03-23T10:08:51;5.40;;;1.48;;
18905;SDS011;9585;51.018;4.282;2024-03-23T10:11:20;5.57;;;1.58;;
18905;SDS011;9585;51.018;4.282;2024-03-23T10:13:48;4.72;;;1.60;;
18905;SDS011;9585;51.018;4.282;2024-03-23T10:19:15;3.10;;;1.40;;
18905;SDS011;9585;51.018;4.282;2024-03-23T10:21:57;5.80;;;2.17;;
18905;SDS011;9585;51.018;4.282;2024-03-23T10:24:25;5.32;;;1.75;;
18905;SDS011;9585;51.018;4.282;2024-03-23T10:26:55;7.85;;;2.13;;
18905;SDS011;9585;51.018;4.282;2024-03-23T10:29:22;5.50;;;1.95;;
18905;SDS011;9585;51.018;4.282;2024-03-23T10:31:52;5.00;;;1.73;;
18905;SDS011;9585;51.018;4.282;2024-03-23T10:34:24;4.30;;;2.00;;
18905;SDS011;9585;51.018;4.282;2024-03-23T10:36:53;5.72;;;2.08;;
18905;SDS011;9585;51.018;4.282;2024-03-23T10:39:19;4.75;;;1.77;;
18905;SDS011;9585;51.018;4.282;2024-03-23T10:41:50;7.75;;;2.15;;
18905;SDS011;9585;51.018;4.282;2024-03-23T10:44:18;5.38;;;2.13;;
18905;SDS011;9585;51.018;4.282;2024-03-23T10:46:50;7.13;;;2.15;;
18905;SDS011;9585;51.018;4.282;2024-03-23T10:49:23;6.85;;;2.17;;
18905;SDS011;9585;51.018;4.282;2024-03-23T10:51:53;4.25;;;1.70;;
18905;SDS011;9585;51.018;4.282;2024-03-23T10:54:19;3.92;;;1.65;;
18905;SDS011;9585;51.018;4.282;2024-03-23T10:56:48;3.15;;;1.75;;
18905;SDS011;9585;51.018;4.282;2024-03-23T10:59:22;4.95;;;1.92;;
18905;SDS011;9585;51.018;4.282;2024-03-23T11:01:54;2.65;;;1.77;;
18905;SDS011;9585;51.018;4.282;2024-03-23T11:04:29;2.78;;;2.30;;
18905;SDS011;9585;51.018;4.282;2024-03-23T11:10:24;6.65;;;2.80;;
18905;SDS011;9585;51.018;4.282;2024-03-23T11:12:55;5.47;;;2.80;;
18905;SDS011;9585;51.018;4.282;2024-03-23T11:15:22;5.30;;;2.33;;
18905;SDS011;9585;51.018;4.282;2024-03-23T11:18:02;7.32;;;2.55;;
18905;SDS011;9585;51.018;4.282;2024-03-23T11:20:32;5.38;;;2.97;;
18905;SDS011;9585;51.018;4.282;2024-03-23T11:23:00;6.03;;;3.00;;
18905;SDS011;9585;51.018;4.282;2024-03-23T11:25:27;6.68;;;2.40;;
18905;SDS011;9585;51.018;4.282;2024-03-23T11:27:57;3.40;;;1.80;;
18905;SDS011;9585;51.018;4.282;2024-03-23T11:30:34;3.63;;;1.90;;
18905;SDS011;9585;51.018;4.282;2024-03-23T11:33:03;4.20;;;1.83;;
18905;SDS011;9585;51.018;4.282;2024-03-23T11:35:30;3.88;;;1.48;;
18905;SDS011;9585;51.018;4.282;2024-03-23T11:38:05;6.32;;;2.00;;
18905;SDS011;9585;51.018;4.282;2024-03-23T11:40:33;4.97;;;1.70;;
18905;SDS011;9585;51.018;4.282;2024-03-23T11:43:03;5.15;;;1.33;;
18905;SDS011;9585;51.018;4.282;2024-03-23T11:45:33;5.43;;;1.70;;
18905;SDS011;9585;51.018;4.282;2024-03-23T11:48:05;3.20;;;1.58;;
18905;SDS011;9585;51.018;4.282;2024-03-23T11:50:33;4.07;;;1.38;;
18905;SDS011;9585;51.018;4.282;2024-03-23T11:53:12;3.72;;;1.40;;
18905;SDS011;9585;51.018;4.282;2024-03-23T11:55:41;7.80;;;1.58;;
18905;SDS011;9585;51.018;4.282;2024-03-23T11:58:11;2.83;;;1.10;;
18905;SDS011;9585;51.018;4.282;2024-03-23T12:00:38;3.88;;;1.50;;
18905;SDS011;9585;51.018;4.282;2024-03-23T12:03:06;4.20;;;1.85;;
18905;SDS011;9585;51.018;4.282;2024-03-23T12:05:33;4.93;;;1.20;;
18905;SDS011;9585;51.018;4.282;2024-03-23T12:08:16;3.83;;;1.10;;
18905;SDS011;9585;51.018;4.282;2024-03-23T12:10:44;3.65;;;1.17;;
18905;SDS011;9585;51.018;4.282;2024-03-23T12:13:16;7.05;;;1.40;;
18905;SDS011;9585;51.018;4.282;2024-03-23T12:15:43;3.95;;;1.38;;
18905;SDS011;9585;51.018;4.282;2024-03-23T12:18:11;6.55;;;1.25;;
18905;SDS011;9585;51.018;4.282;2024-03-23T12:20:38;5.55;;;1.02;;
18905;SDS011;9585;51.018;4.282;2024-03-23T12:23:06;4.80;;;1.25;;
18905;SDS011;9585;51.018;4.282;2024-03-23T12:25:34;4.10;;;1.10;;
18905;SDS011;9585;51.018;4.282;2024-03-23T12:28:02;3.28;;;1.10;;
18905;SDS011;9585;51.018;4.282;2024-03-23T12:30:33;7.90;;;1.50;;
18905;SDS011;9585;51.018;4.282;2024-03-23T12:33:05;4.47;;;1.45;;
18905;SDS011;9585;51.018;4.282;2024-03-23T12:35:31;3.20;;;1.00;;
18905;SDS011;9585;51.018;4.282;2024-03-23T12:37:59;3.40;;;1.20;;
18905;SDS011;9585;51.018;4.282;2024-03-23T12:40:25;4.22;;;1.10;;
18905;SDS011;9585;51.018;4.282;2024-03-23T12:42:53;2.95;;;1.30;;
18905;SDS011;9585;51.018;4.282;2024-03-23T12:45:19;3.95;;;1.50;;
18905;SDS011;9585;51.018;4.282;2024-03-23T12:47:48;4.65;;;1.40;;
18905;SDS011;9585;51.018;4.282;2024-03-23T12:50:15;3.33;;;1.25;;
18905;SDS011;9585;51.018;4.282;2024-03-23T12:52:42;4.90;;;1.35;;
18905;SDS011;9585;51.018;4.282;2024-03-23T12:55:09;4.50;;;1.17;;
18905;SDS011;9585;51.018;4.282;2024-03-23T12:57:36;4.38;;;1.20;;
18905;SDS011;9585;51.018;4.282;2024-03-23T13:00:03;3.75;;;1.30;;
18905;SDS011;9585;51.018;4.282;2024-03-23T13:02:31;5.03;;;1.38;;
18905;SDS011;9585;51.018;4.282;2024-03-23T13:05:01;3.17;;;1.13;;
18905;SDS011;9585;51.018;4.282;2024-03-23T13:07:29;4.22;;;1.30;;
18905;SDS011;9585;51.018;4.282;2024-03-23T13:09:55;4.20;;;1.50;;
18905;SDS011;9585;51.018;4.282;2024-03-23T13:12:23;2.65;;;0.82;;
18905;SDS011;9585;51.018;4.282;2024-03-23T13:14:49;0.75;;;0.40;;
18905;SDS011;9585;51.018;4.282;2024-03-23T13:17:16;1.67;;;0.50;;
18905;SDS011;9585;51.018;4.282;2024-03-23T13:19:43;1.73;;;0.57;;
18905;SDS011;9585;51.018;4.282;2024-03-23T13:22:12;1.52;;;0.77;;
18905;SDS011;9585;51.018;4.282;2024-03-23T13:24:38;1.83;;;0.90;;
18905;SDS011;9585;51.018;4.282;2024-03-23T13:27:06;3.55;;;0.80;;
18905;SDS011;9585;51.018;4.282;2024-03-23T13:29:33;2.72;;;1.05;;
18905;SDS011;9585;51.018;4.282;2024-03-23T13:32:01;2.85;;;1.05;;
18905;SDS011;9585;51.018;4.282;2024-03-23T13:34:27;3.33;;;1.10;;
18905;SDS011;9585;51.018;4.282;2024-03-23T13:36:55;3.25;;;1.08;;
18905;SDS011;9585;51.018;4.282;2024-03-23T13:39:24;2.88;;;1.00;;
18905;SDS011;9585;51.018;4.282;2024-03-23T13:41:53;3.40;;;1.00;;
18905;SDS011;9585;51.018;4.282;2024-03-23T13:44:20;3.88;;;1.20;;
18905;SDS011;9585;51.018;4.282;2024-03-23T13:46:48;2.72;;;1.30;;
18905;SDS011;9585;51.018;4.282;2024-03-23T13:49:19;3.55;;;1.10;;
18905;SDS011;9585;51.018;4.282;2024-03-23T13:51:52;1.67;;;0.80;;
18905;SDS011;9585;51.018;4.282;2024-03-23T13:54:19;2.83;;;1.00;;
18905;SDS011;9585;51.018;4.282;2024-03-23T13:56:49;3.67;;;1.27;;
18905;SDS011;9585;51.018;4.282;2024-03-23T13:59:15;4.13;;;1.15;;
18905;SDS011;9585;51.018;4.282;2024-03-23T14:01:43;3.85;;;1.20;;
18905;SDS011;9585;51.018;4.282;2024-03-23T14:04:10;4.32;;;1.23;;
18905;SDS011;9585;51.018;4.282;2024-03-23T14:06:38;3.13;;;1.10;;
18905;SDS011;9585;51.018;4.282;2024-03-23T14:09:04;2.53;;;1.15;;
18905;SDS011;9585;51.018;4.282;2024-03-23T14:11:34;2.50;;;1.10;;
18905;SDS011;9585;51.018;4.282;2024-03-23T14:14:03;5.57;;;1.42;;
18905;SDS011;9585;51.018;4.282;2024-03-23T14:16:31;4.00;;;1.50;;
18905;SDS011;9585;51.018;4.282;2024-03-23T14:18:57;5.72;;;1.40;;
18905;SDS011;9585;51.018;4.282;2024-03-23T14:21:25;4.32;;;1.23;;
18905;SDS011;9585;51.018;4.282;2024-03-23T14:23:51;3.45;;;1.50;;
18905;SDS011;9585;51.018;4.282;2024-03-23T14:26:20;5.85;;;1.35;;
18905;SDS011;9585;51.018;4.282;2024-03-23T14:28:47;7.80;;;4.05;;
18905;SDS011;9585;51.018;4.282;2024-03-23T14:31:17;3.75;;;1.60;;
18905;SDS011;9585;51.018;4.282;2024-03-23T14:33:44;5.75;;;1.73;;
18905;SDS011;9585;51.018;4.282;2024-03-23T14:36:12;3.67;;;1.50;;
18905;SDS011;9585;51.018;4.282;2024-03-23T14:38:39;7.15;;;1.80;;
18905;SDS011;9585;51.018;4.282;2024-03-23T14:41:06;5.25;;;1.50;;
18905;SDS011;9585;51.018;4.282;2024-03-23T14:43:34;3.78;;;1.42;;
18905;SDS011;9585;51.018;4.282;2024-03-23T14:46:05;4.07;;;1.60;;
18905;SDS011;9585;51.018;4.282;2024-03-23T14:48:35;4.10;;;1.20;;
18905;SDS011;9585;51.018;4.282;2024-03-23T14:51:02;3.10;;;0.90;;
18905;SDS011;9585;51.018;4.282;2024-03-23T14:53:32;4.80;;;1.30;;
18905;SDS011;9585;51.018;4.282;2024-03-23T14:55:59;2.88;;;1.13;;
18905;SDS011;9585;51.018;4.282;2024-03-23T14:58:27;5.00;;;1.20;;
18905;SDS011;9585;51.018;4.282;2024-03-23T15:00:59;2.38;;;1.00;;
18905;SDS011;9585;51.018;4.282;2024-03-23T15:03:27;3.20;;;1.20;;
18905;SDS011;9585;51.018;4.282;2024-03-23T15:05:56;1.95;;;1.00;;
18905;SDS011;9585;51.018;4.282;2024-03-23T15:08:25;3.60;;;1.10;;
18905;SDS011;9585;51.018;4.282;2024-03-23T15:10:52;5.32;;;1.10;;
18905;SDS011;9585;51.018;4.282;2024-03-23T15:13:20;6.80;;;1.60;;
18905;SDS011;9585;51.018;4.282;2024-03-23T15:15:48;5.22;;;1.30;;
18905;SDS011;9585;51.018;4.282;2024-03-23T15:18:16;3.65;;;1.45;;
18905;SDS011;9585;51.018;4.282;2024-03-23T15:20:53;3.15;;;1.30;;
18905;SDS011;9585;51.018;4.282;2024-03-23T15:23:22;5.43;;;1.33;;
18905;SDS011;9585;51.018;4.282;2024-03-23T15:25:56;4.53;;;1.42;;
18905;SDS011;9585;51.018;4.282;2024-03-23T15:28:23;4.40;;;1.13;;
18905;SDS011;9585;51.018;4.282;2024-03-23T15:31:03;3.33;;;0.95;;
18905;SDS011;9585;51.018;4.282;2024-03-23T15:33:29;4.90;;;1.40;;
18905;SDS011;9585;51.018;4.282;2024-03-23T15:35:59;3.13;;;1.48;;
18905;SDS011;9585;51.018;4.282;2024-03-23T15:38:26;3.42;;;1.30;;
18905;SDS011;9585;51.018;4.282;2024-03-23T15:40:54;4.13;;;1.58;;
18905;SDS011;9585;51.018;4.282;2024-03-23T15:43:20;5.68;;;1.17;;
18905;SDS011;9585;51.018;4.282;2024-03-23T15:45:53;2.13;;;0.90;;
18905;SDS011;9585;51.018;4.282;2024-03-23T15:48:20;2.33;;;1.00;;
18905;SDS011;9585;51.018;4.282;2024-03-23T15:50:51;2.28;;;1.08;;
18905;SDS011;9585;51.018;4.282;2024-03-23T15:53:19;3.88;;;1.13;;
18905;SDS011;9585;51.018;4.282;2024-03-23T15:55:52;4.53;;;1.25;;
18905;SDS011;9585;51.018;4.282;2024-03-23T15:58:19;4.47;;;1.30;;
18905;SDS011;9585;51.018;4.282;2024-03-23T16:00:53;4.88;;;1.40;;
18905;SDS011;9585;51.018;4.282;2024-03-23T16:03:20;4.50;;;1.40;;